createdAt,value
2022-12-12T00:00:25.612Z,5.66
2022-12-12T00:02:57.827Z,5.69
2022-12-12T00:05:29.599Z,5.69
2022-12-12T00:08:01.135Z,5.70
2022-12-12T00:10:33.114Z,5.71
2022-12-12T00:13:04.944Z,5.72
2022-12-12T00:15:36.394Z,5.69
2022-12-12T00:18:07.804Z,5.62
2022-12-12T00:20:39.201Z,5.62
2022-12-12T00:23:10.603Z,5.64
2022-12-12T00:25:42.066Z,5.61
2022-12-12T00:28:13.472Z,5.56
2022-12-12T00:30:44.980Z,5.55
2022-12-12T00:33:17.046Z,5.52
2022-12-12T00:35:53.841Z,5.47
2022-12-12T00:38:25.256Z,5.49
2022-12-12T00:40:58.972Z,5.48
2022-12-12T00:43:30.464Z,5.47
2022-12-12T00:46:02.417Z,5.46
2022-12-12T00:48:34.472Z,5.41
2022-12-12T00:51:09.595Z,5.36
2022-12-12T00:53:41.006Z,5.31
2022-12-12T00:56:14.518Z,5.25
2022-12-12T00:58:47.205Z,5.20
2022-12-12T01:01:22.387Z,5.16
2022-12-12T01:03:54.775Z,5.11
2022-12-12T01:06:27.019Z,5.09
2022-12-12T01:08:58.793Z,4.99
2022-12-12T01:11:30.660Z,5.01
2022-12-12T01:14:02.612Z,4.96
2022-12-12T01:16:34.216Z,4.99
2022-12-12T01:19:05.708Z,4.95
2022-12-12T01:21:37.159Z,4.97
2022-12-12T01:24:08.681Z,4.99
2022-12-12T01:26:40.185Z,5.00
2022-12-12T01:29:11.662Z,4.56
2022-12-12T01:31:43.194Z,4.91
2022-12-12T01:34:14.698Z,4.94
2022-12-12T01:36:46.180Z,4.95
2022-12-12T01:39:17.591Z,4.98
2022-12-12T01:41:49.026Z,5.00
2022-12-12T01:44:41.139Z,5.01
2022-12-12T01:47:14.995Z,5.00
2022-12-12T01:50:00.560Z,5.00
2022-12-12T01:52:49.161Z,5.01
2022-12-12T01:55:23.130Z,4.92
2022-12-12T01:57:54.837Z,4.86
2022-12-12T02:00:26.489Z,4.84
2022-12-12T02:02:58.182Z,4.79
2022-12-12T02:05:38.655Z,4.74
2022-12-12T02:08:12.473Z,4.62
2022-12-12T02:10:44.839Z,4.60
2022-12-12T02:13:21.343Z,4.54
2022-12-12T02:16:07.815Z,4.45
2022-12-12T02:18:57.217Z,4.34
2022-12-12T02:21:53.680Z,4.26
2022-12-12T02:24:46.508Z,4.19
2022-12-12T02:27:36.736Z,4.14
2022-12-12T02:30:16.013Z,4.07
2022-12-12T02:33:13.814Z,4.06
2022-12-12T02:35:51.248Z,3.97
2022-12-12T02:38:29.992Z,3.94
2022-12-12T02:41:15.159Z,3.87
2022-12-12T02:44:01.765Z,3.84
2022-12-12T02:46:41.544Z,3.74
2022-12-12T02:49:36.274Z,3.71
2022-12-12T02:52:10.542Z,3.63
2022-12-12T02:54:41.957Z,3.60
2022-12-12T02:57:16.397Z,3.52
2022-12-12T02:59:53.010Z,3.48
2022-12-12T03:02:52.681Z,3.43
2022-12-12T03:05:55.407Z,3.36
2022-12-12T03:08:48.921Z,3.29
2022-12-12T03:11:53.505Z,3.25
2022-12-12T03:14:33.790Z,3.23
2022-12-12T03:17:17.034Z,3.17
2022-12-12T03:19:59.528Z,3.10
2022-12-12T03:22:46.702Z,3.09
2022-12-12T03:25:26.584Z,3.04
2022-12-12T03:28:06.854Z,3.01
2022-12-12T03:30:42.968Z,2.98
2022-12-12T03:33:27.346Z,2.95
2022-12-12T03:36:19.891Z,2.93
2022-12-12T03:38:58.927Z,2.90
2022-12-12T03:41:51.667Z,2.86
2022-12-12T03:44:38.154Z,2.78
2022-12-12T03:47:17.566Z,2.76
2022-12-12T03:50:08.981Z,2.75
2022-12-12T03:52:46.192Z,2.68
2022-12-12T03:55:36.328Z,2.66
2022-12-12T03:58:22.807Z,2.65
2022-12-12T04:00:57.815Z,2.63
2022-12-12T04:03:41.018Z,2.62
2022-12-12T04:06:24.105Z,2.58
2022-12-12T04:09:01.972Z,2.58
2022-12-12T04:11:43.338Z,2.56
2022-12-12T04:14:32.810Z,2.57
2022-12-12T04:17:06.423Z,2.55
2022-12-12T04:19:49.564Z,2.54
2022-12-12T04:22:27.411Z,2.48
2022-12-12T04:25:08.184Z,2.44
2022-12-12T04:27:44.423Z,2.43
2022-12-12T04:30:16.336Z,2.43
2022-12-12T04:33:07.182Z,2.42
2022-12-12T04:35:43.528Z,2.41
2022-12-12T04:38:19.844Z,2.38
2022-12-12T04:40:55.557Z,2.35
2022-12-12T04:43:33.632Z,2.32
2022-12-12T04:46:09.285Z,2.28
2022-12-12T04:48:49.781Z,2.27
2022-12-12T04:51:37.310Z,2.23
2022-12-12T04:54:50.817Z,2.17
2022-12-12T04:57:29.127Z,2.15
2022-12-12T05:00:00.888Z,2.13
2022-12-12T05:02:44.245Z,2.13
2022-12-12T05:05:53.301Z,2.08
2022-12-12T05:08:32.125Z,2.02
2022-12-12T05:11:06.342Z,1.98
2022-12-12T05:13:41.390Z,1.96
2022-12-12T05:16:30.477Z,1.95
2022-12-12T05:19:02.024Z,1.93
2022-12-12T05:21:33.410Z,1.93
2022-12-12T05:24:05.254Z,1.93
2022-12-12T05:26:37.286Z,1.91
2022-12-12T05:29:08.743Z,1.92
2022-12-12T05:31:40.174Z,1.89
2022-12-12T05:34:11.624Z,1.81
2022-12-12T05:36:43.120Z,1.74
2022-12-12T05:39:14.585Z,1.69
2022-12-12T05:41:46.048Z,1.67
2022-12-12T05:44:17.538Z,1.68
2022-12-12T05:46:48.996Z,1.68
2022-12-12T05:49:20.457Z,1.66
2022-12-12T05:51:51.899Z,1.66
2022-12-12T05:54:23.356Z,1.66
2022-12-12T05:56:54.771Z,1.63
2022-12-12T05:59:26.240Z,1.62
2022-12-12T06:01:57.708Z,1.61
2022-12-12T06:04:29.153Z,1.62
2022-12-12T06:07:00.630Z,1.61
2022-12-12T06:09:32.556Z,1.61
2022-12-12T06:12:04.300Z,1.59
2022-12-12T06:14:35.685Z,1.56
2022-12-12T06:17:07.121Z,1.57
2022-12-12T06:19:39.125Z,1.56
2022-12-12T06:22:10.586Z,1.55
2022-12-12T06:24:42.188Z,1.55
2022-12-12T06:27:13.636Z,1.53
2022-12-12T06:29:45.084Z,1.52
2022-12-12T06:32:16.529Z,1.52
2022-12-12T06:34:47.943Z,1.50
2022-12-12T06:37:19.608Z,1.47
2022-12-12T06:39:51.092Z,1.45
2022-12-12T06:42:22.485Z,1.43
2022-12-12T06:44:53.885Z,1.39
2022-12-12T06:47:25.345Z,1.38
2022-12-12T06:49:56.819Z,1.37
2022-12-12T06:52:28.302Z,1.33
2022-12-12T06:54:59.775Z,1.34
2022-12-12T06:57:31.233Z,1.35
2022-12-12T07:00:03.402Z,1.35
2022-12-12T07:02:34.899Z,1.38
2022-12-12T07:05:07.200Z,1.34
2022-12-12T07:07:38.872Z,1.30
2022-12-12T07:10:10.363Z,1.29
2022-12-12T07:12:45.417Z,1.19
2022-12-12T07:15:19.057Z,1.25
2022-12-12T07:17:53.811Z,1.29
2022-12-12T07:20:25.383Z,1.29
2022-12-12T07:22:56.817Z,1.28
2022-12-12T07:25:28.215Z,1.28
2022-12-12T07:27:59.641Z,1.29
2022-12-12T07:30:31.569Z,1.31
2022-12-12T07:33:03.066Z,1.31
2022-12-12T07:35:34.901Z,1.33
2022-12-12T07:38:06.405Z,1.31
2022-12-12T07:40:38.169Z,1.34
2022-12-12T07:43:09.660Z,1.37
2022-12-12T07:45:44.533Z,1.33
2022-12-12T07:48:15.988Z,1.32
2022-12-12T07:50:47.397Z,1.32
2022-12-12T07:53:18.827Z,1.33
2022-12-12T07:55:50.237Z,1.35
2022-12-12T07:58:21.727Z,1.38
2022-12-12T08:00:53.157Z,1.34
2022-12-12T08:03:24.649Z,1.31
2022-12-12T08:05:56.056Z,1.23
2022-12-12T08:08:27.582Z,1.32
2022-12-12T08:10:59.030Z,1.32
2022-12-12T08:13:30.522Z,1.33
2022-12-12T08:16:02.880Z,1.35
2022-12-12T08:18:34.801Z,1.34
2022-12-12T08:21:13.911Z,1.36
2022-12-12T08:23:45.607Z,1.34
2022-12-12T08:26:18.249Z,1.34
2022-12-12T08:28:49.640Z,1.31
2022-12-12T08:31:21.696Z,1.34
2022-12-12T08:33:53.439Z,1.40
2022-12-12T08:36:27.712Z,1.45
2022-12-12T08:39:03.458Z,1.50
2022-12-12T08:41:36.848Z,1.53
2022-12-12T08:44:09.028Z,1.56
2022-12-12T08:46:40.761Z,1.56
2022-12-12T08:49:12.808Z,1.58
2022-12-12T08:51:44.234Z,1.60
2022-12-12T08:54:15.612Z,1.65
2022-12-12T08:56:47.086Z,1.67
2022-12-12T08:59:18.554Z,1.70
2022-12-12T09:01:50.125Z,1.71
2022-12-12T09:04:21.630Z,1.61
2022-12-12T09:06:53.329Z,1.69
2022-12-12T09:09:24.760Z,1.71
2022-12-12T09:11:56.260Z,1.70
2022-12-12T09:14:27.693Z,1.72
2022-12-12T09:16:59.117Z,1.57
2022-12-12T09:19:30.533Z,1.48
2022-12-12T09:22:03.518Z,1.77
2022-12-12T09:24:34.935Z,1.86
2022-12-12T09:27:07.522Z,1.84
2022-12-12T09:29:39.607Z,1.98
2022-12-12T09:32:11.013Z,2.08
2022-12-12T09:34:42.442Z,1.73
2022-12-12T09:37:14.260Z,1.83
2022-12-12T09:39:45.861Z,1.75
2022-12-12T09:42:30.737Z,1.69
2022-12-12T09:45:05.461Z,1.84
2022-12-12T09:47:42.538Z,1.50
2022-12-12T09:50:22.714Z,1.76
2022-12-12T09:52:58.678Z,1.49
2022-12-12T09:55:47.739Z,1.92
2022-12-12T09:58:49.076Z,2.01
2022-12-12T10:01:38.215Z,1.61
2022-12-12T10:04:35.688Z,1.76
2022-12-12T10:07:19.260Z,1.96
2022-12-12T10:10:02.697Z,2.19
2022-12-12T10:12:34.758Z,1.73
2022-12-12T10:15:13.111Z,2.11
2022-12-12T10:17:46.276Z,1.72
2022-12-12T10:20:45.368Z,2.19
2022-12-12T10:23:49.593Z,2.31
2022-12-12T10:26:29.904Z,2.42
2022-12-12T10:29:18.607Z,2.08
2022-12-12T10:32:02.434Z,2.31
2022-12-12T10:34:40.094Z,2.47
2022-12-12T10:37:36.823Z,2.74
2022-12-12T10:40:18.646Z,2.67
2022-12-12T10:43:21.283Z,2.61
2022-12-12T10:46:16.475Z,2.86
2022-12-12T10:48:48.825Z,2.80
2022-12-12T10:51:23.069Z,2.98
2022-12-12T10:53:54.941Z,3.11
2022-12-12T10:56:28.081Z,2.95
2022-12-12T10:59:00.656Z,3.04
2022-12-12T11:02:08.452Z,2.91
2022-12-12T11:04:31.333Z,3.04
2022-12-12T11:07:02.787Z,2.78
2022-12-12T11:09:34.225Z,3.02
2022-12-12T11:12:11.529Z,2.95
2022-12-12T11:14:49.948Z,2.88
2022-12-12T11:17:26.682Z,2.97
2022-12-12T11:20:00.774Z,2.69
2022-12-12T11:22:33.027Z,2.60
2022-12-12T11:25:05.257Z,2.95
2022-12-12T11:27:40.747Z,3.11
2022-12-12T11:30:26.435Z,3.19
2022-12-12T11:32:58.167Z,3.04
2022-12-12T11:35:34.840Z,3.12
2022-12-12T11:38:14.793Z,3.17
2022-12-12T11:40:58.762Z,3.19
2022-12-12T11:43:32.157Z,3.22
2022-12-12T11:46:25.903Z,2.93
2022-12-12T11:49:03.165Z,3.32
2022-12-12T11:51:43.410Z,2.94
2022-12-12T11:54:29.258Z,3.19
2022-12-12T11:57:11.910Z,3.27
2022-12-12T12:00:04.740Z,3.31
2022-12-12T12:03:11.793Z,3.46
2022-12-12T12:06:07.945Z,3.50
2022-12-12T12:08:54.664Z,3.23
2022-12-12T12:11:37.616Z,3.49
2022-12-12T12:14:40.802Z,3.15
2022-12-12T12:17:55.881Z,3.37
2022-12-12T12:21:17.578Z,3.31
2022-12-12T12:23:57.798Z,3.18
2022-12-12T12:26:35.870Z,3.07
2022-12-12T12:29:07.352Z,3.44
2022-12-12T12:31:47.138Z,3.58
2022-12-12T12:34:42.826Z,3.74
2022-12-12T12:37:45.161Z,3.58
2022-12-12T12:40:46.604Z,3.43
2022-12-12T12:43:36.743Z,3.40
2022-12-12T12:46:26.881Z,3.42
2022-12-12T12:49:10.707Z,3.29
2022-12-12T12:51:50.605Z,3.60
2022-12-12T12:54:27.226Z,3.73
2022-12-12T12:57:13.630Z,3.88
2022-12-12T12:59:49.698Z,3.87
2022-12-12T13:02:41.152Z,4.05
2022-12-12T13:05:25.603Z,4.19
2022-12-12T13:07:57.017Z,4.26
2022-12-12T13:10:30.751Z,4.25
2022-12-12T13:13:25.870Z,4.28
2022-12-12T13:16:13.098Z,4.24
2022-12-12T13:18:47.968Z,4.44
2022-12-12T13:21:41.297Z,4.58
2022-12-12T13:24:43.360Z,4.69
2022-12-12T13:27:22.384Z,4.88
2022-12-12T13:29:55.843Z,4.86
2022-12-12T13:32:40.964Z,4.95
2022-12-12T13:35:35.507Z,5.10
2022-12-12T13:38:37.182Z,5.07
2022-12-12T13:41:10.101Z,5.31
2022-12-12T13:43:49.173Z,5.49
2022-12-12T13:46:23.530Z,5.62
2022-12-12T13:49:06.807Z,5.84
2022-12-12T13:51:41.787Z,-146.10
2022-12-12T13:54:14.617Z,-146.10
2022-12-12T13:57:13.807Z,-146.10
2022-12-12T13:59:54.328Z,-146.10
2022-12-12T14:02:37.707Z,-146.10
2022-12-12T14:05:23.870Z,-146.10
2022-12-12T14:08:04.353Z,-146.10
2022-12-12T14:10:35.762Z,-146.10
2022-12-12T14:13:27.369Z,-146.10
2022-12-12T14:16:25.437Z,-146.10
2022-12-12T14:19:19.131Z,-146.10
2022-12-12T14:21:50.585Z,-146.10
2022-12-12T14:24:34.317Z,-146.10
2022-12-12T14:27:07.584Z,-146.10
2022-12-12T14:29:44.409Z,-146.10
2022-12-12T14:32:35.900Z,-146.10
2022-12-12T14:35:34.433Z,-146.10
2022-12-12T14:38:21.017Z,-146.10
2022-12-12T14:41:03.692Z,-146.10
2022-12-12T14:43:40.334Z,-146.10
2022-12-12T14:46:16.582Z,-146.10
2022-12-12T14:48:48.069Z,-146.10
2022-12-12T14:51:27.685Z,-146.10
2022-12-12T14:54:03.785Z,-146.10
2022-12-12T14:56:52.391Z,-146.10
2022-12-12T14:59:31.352Z,-146.10
2022-12-12T15:02:22.462Z,-146.10
2022-12-12T15:05:04.395Z,-146.10
2022-12-12T15:07:38.141Z,-146.10
2022-12-12T15:10:22.860Z,-146.10
2022-12-12T15:12:54.281Z,-146.10
2022-12-12T15:15:29.864Z,-146.10
2022-12-12T15:18:01.780Z,-146.10
2022-12-12T15:20:33.316Z,-146.10
2022-12-12T15:23:06.866Z,-146.10
2022-12-12T15:25:47.814Z,-146.10
2022-12-12T15:28:21.174Z,-146.10
2022-12-12T15:30:53.517Z,-146.10
2022-12-12T15:33:27.648Z,-146.10
2022-12-12T15:36:02.561Z,-146.10
2022-12-12T15:38:34.688Z,-146.10
2022-12-12T15:41:13.338Z,-146.10
2022-12-12T15:43:45.273Z,-146.10
2022-12-12T15:46:16.942Z,-146.10
2022-12-12T15:48:49.501Z,-146.10
2022-12-12T15:51:25.113Z,-146.10
2022-12-12T15:53:57.342Z,-146.10
2022-12-12T15:56:29.339Z,-146.10
2022-12-12T15:59:09.665Z,-146.10
2022-12-12T16:01:41.616Z,-146.10
2022-12-12T16:04:13.122Z,-146.10
2022-12-12T16:06:46.611Z,-146.10
2022-12-12T16:09:23.832Z,-146.10
2022-12-12T16:11:59.378Z,-146.10
2022-12-12T16:14:40.091Z,-146.10
2022-12-12T16:17:26.120Z,-146.10
2022-12-12T16:20:02.676Z,-146.10
2022-12-12T16:22:49.207Z,-146.10
2022-12-12T16:25:27.611Z,-146.10
2022-12-12T16:28:07.928Z,-146.10
2022-12-12T16:30:41.674Z,-146.10
2022-12-12T16:33:18.841Z,-146.10
2022-12-12T16:35:50.538Z,-146.10
2022-12-12T16:38:22.236Z,-146.10
2022-12-12T16:40:56.145Z,-146.10
2022-12-12T16:43:27.792Z,-146.10
2022-12-12T16:45:59.514Z,-146.10
2022-12-12T16:48:36.048Z,-146.10
2022-12-12T16:51:13.314Z,-146.10
2022-12-12T16:53:45.269Z,-146.10
2022-12-12T16:56:16.744Z,-146.10
2022-12-12T16:58:48.212Z,-146.10
2022-12-12T17:01:20.924Z,-146.10
2022-12-12T17:03:52.494Z,-146.10
2022-12-12T17:06:23.982Z,-146.10
2022-12-12T17:08:55.416Z,-146.10
2022-12-12T17:11:26.879Z,-146.10
2022-12-12T17:13:58.287Z,-146.10
2022-12-12T17:16:29.762Z,-146.10
2022-12-12T17:19:01.187Z,-146.10
2022-12-12T17:21:32.663Z,-146.10
2022-12-12T17:24:04.261Z,-146.10
2022-12-12T17:26:37.709Z,-146.10
2022-12-12T17:29:09.442Z,-146.10
2022-12-12T17:31:41.020Z,-146.10
2022-12-12T17:34:12.458Z,-146.10
2022-12-12T17:36:43.909Z,-146.10
2022-12-12T17:39:15.337Z,-146.10
2022-12-12T17:41:46.757Z,-146.10
2022-12-12T17:44:18.289Z,-146.10
2022-12-12T17:46:49.773Z,-146.10
2022-12-12T17:49:21.241Z,-146.10
2022-12-12T17:51:52.636Z,-146.10
2022-12-12T17:54:24.099Z,-146.10
2022-12-12T17:56:55.552Z,-146.10
2022-12-12T17:59:26.981Z,-146.10
2022-12-12T18:01:59.379Z,-146.10
2022-12-12T18:04:33.054Z,-146.10
2022-12-12T18:07:05.692Z,-146.10
2022-12-12T18:09:37.118Z,-146.10
2022-12-12T18:12:08.533Z,-146.10
2022-12-12T18:14:39.990Z,-146.10
2022-12-12T18:17:11.386Z,-146.10
2022-12-12T18:19:42.851Z,-146.10
2022-12-12T18:22:14.255Z,-146.10
2022-12-12T18:24:48.888Z,-146.10
2022-12-12T18:27:20.358Z,-146.10
2022-12-12T18:29:51.761Z,-146.10
2022-12-12T18:32:23.227Z,-146.10
2022-12-12T18:34:54.640Z,-146.10
2022-12-12T18:37:26.097Z,-146.10
2022-12-12T18:39:57.490Z,-146.10
2022-12-12T18:42:28.944Z,-146.10
2022-12-12T18:45:00.398Z,-146.10
2022-12-12T18:47:31.849Z,-146.10
2022-12-12T18:50:03.560Z,-146.10
2022-12-12T18:52:35.116Z,-146.10
2022-12-12T18:55:07.137Z,-146.10
2022-12-12T18:57:38.568Z,-146.10
2022-12-12T19:00:10.499Z,-146.10
2022-12-12T19:02:42.031Z,-146.10
2022-12-12T19:05:13.536Z,-146.10
2022-12-12T19:07:44.997Z,-146.10
2022-12-12T19:10:16.824Z,-146.10
2022-12-12T19:12:48.464Z,-146.10
2022-12-12T19:15:19.869Z,-146.10
2022-12-12T19:17:51.317Z,-146.10
2022-12-12T19:20:24.010Z,-146.10
2022-12-12T19:22:55.469Z,-146.10
2022-12-12T19:25:26.910Z,-146.10
2022-12-12T19:27:58.640Z,-146.10
2022-12-12T19:30:30.129Z,-146.10
2022-12-12T19:33:01.568Z,-146.10
2022-12-12T19:35:36.542Z,-146.10
2022-12-12T19:38:07.935Z,-146.10
2022-12-12T19:40:39.363Z,-146.10
2022-12-12T19:43:10.889Z,-146.10
2022-12-12T19:45:42.419Z,-146.10
2022-12-12T19:48:13.909Z,-146.10
2022-12-12T19:50:45.313Z,-146.10
2022-12-12T19:53:16.734Z,-146.10
2022-12-12T19:55:48.209Z,-146.10
2022-12-12T19:58:19.661Z,-146.10
2022-12-12T20:00:51.110Z,-146.10
2022-12-12T20:03:22.534Z,-146.10
2022-12-12T20:06:02.740Z,-146.10
2022-12-12T20:08:35.604Z,-146.10
2022-12-12T20:11:10.042Z,-146.10
2022-12-12T20:13:42.366Z,-146.10
2022-12-12T20:16:16.157Z,-146.10
2022-12-12T20:18:47.723Z,-146.10
2022-12-12T20:21:58.678Z,-146.10
2022-12-12T20:24:15.601Z,-146.10
2022-12-12T20:26:47.493Z,-146.10
2022-12-12T20:29:18.900Z,-146.10
2022-12-12T20:31:51.197Z,-146.10
2022-12-12T20:34:22.737Z,-146.10
2022-12-12T20:36:54.154Z,-146.10
2022-12-12T20:39:25.741Z,-146.10
2022-12-12T20:41:57.181Z,-146.10
2022-12-12T20:44:28.614Z,-146.10
2022-12-12T20:47:00.078Z,-146.10
2022-12-12T20:49:31.497Z,-146.10
2022-12-12T20:52:02.986Z,-146.10
2022-12-12T20:54:34.453Z,-146.10
2022-12-12T20:57:05.896Z,-146.10
2022-12-12T20:59:37.304Z,-146.10
2022-12-12T21:02:10.677Z,-146.10
2022-12-12T21:04:42.138Z,-146.10
2022-12-12T21:07:13.576Z,-146.10
2022-12-12T21:09:45.024Z,-146.10
2022-12-12T21:12:16.463Z,-146.10
2022-12-12T21:14:47.884Z,-146.10
2022-12-12T21:17:19.288Z,-146.10
2022-12-12T21:19:50.740Z,-146.10
2022-12-12T21:22:22.160Z,-146.10
2022-12-12T21:24:53.580Z,-146.10
2022-12-12T21:27:25.140Z,-146.10
2022-12-12T21:29:56.534Z,-146.10
2022-12-12T21:32:27.994Z,-146.10
2022-12-12T21:34:59.453Z,-146.10
2022-12-12T21:37:32.683Z,-146.10
2022-12-12T21:40:07.874Z,-146.10
2022-12-12T21:42:39.276Z,-146.10
2022-12-12T21:45:11.015Z,-146.10
2022-12-12T21:47:42.589Z,-146.10
2022-12-12T21:50:13.971Z,-146.10
2022-12-12T21:52:45.344Z,-146.10
2022-12-12T21:55:16.880Z,-146.10
2022-12-12T21:57:48.417Z,-146.10
2022-12-12T22:00:19.988Z,-146.10
2022-12-12T22:02:51.719Z,-146.10
2022-12-12T22:05:23.250Z,-146.10
2022-12-12T22:07:54.710Z,-146.10
2022-12-12T22:10:26.881Z,-146.10
2022-12-12T22:12:58.346Z,-146.10
2022-12-12T22:15:29.764Z,-146.10
2022-12-12T22:18:01.208Z,-146.10
2022-12-12T22:20:33.860Z,-146.10
2022-12-12T22:23:05.257Z,-146.10
2022-12-12T22:25:36.685Z,-146.10
2022-12-12T22:28:08.210Z,-146.10
2022-12-12T22:30:39.662Z,-146.10
2022-12-12T22:33:11.098Z,-146.10
2022-12-12T22:35:42.538Z,-146.10
2022-12-12T22:38:13.999Z,-146.10
2022-12-12T22:40:53.562Z,-146.10
2022-12-12T22:43:25.296Z,-146.10
2022-12-12T22:45:57.074Z,-146.10
2022-12-12T22:48:29.931Z,-146.10
2022-12-12T22:51:22.237Z,-146.10
2022-12-12T22:53:58.110Z,-146.10
2022-12-12T22:56:31.368Z,-146.10
2022-12-12T22:59:03.558Z,-146.10
2022-12-12T23:01:35.033Z,-146.10
2022-12-12T23:04:06.523Z,-146.10
2022-12-12T23:06:38.120Z,-146.10
2022-12-12T23:09:19.063Z,-146.10
2022-12-12T23:11:50.505Z,-146.10
2022-12-12T23:14:24.599Z,-146.10
2022-12-12T23:16:56.057Z,-146.10
2022-12-12T23:19:27.477Z,-146.10
2022-12-12T23:21:58.929Z,-146.10
2022-12-12T23:24:30.370Z,-146.10
2022-12-12T23:27:01.972Z,-146.10
2022-12-12T23:29:33.363Z,-146.10
2022-12-12T23:32:04.829Z,-146.10
2022-12-12T23:34:36.595Z,-146.10
2022-12-12T23:37:08.006Z,-146.10
2022-12-12T23:39:39.452Z,-146.10
2022-12-12T23:42:10.889Z,-146.10
2022-12-12T23:44:42.292Z,-146.10
2022-12-12T23:47:13.723Z,-146.10
2022-12-12T23:49:45.155Z,-146.10
2022-12-12T23:52:16.557Z,-146.10
2022-12-12T23:54:47.958Z,-146.10
2022-12-12T23:57:19.375Z,-146.10
2022-12-12T23:59:50.777Z,-146.10
